sensor_id;sensor_type;location;lat;lon;timestamp;P1;durP1;ratioP1;P2;durP2;ratioP2
66946;SDS011;53853;51.982;5.928;2024-03-23T00:54:34;19.83;;;8.45;;
66946;SDS011;53853;51.982;5.928;2024-03-23T00:57:01;15.43;;;6.57;;
66946;SDS011;53853;51.982;5.928;2024-03-23T00:59:28;11.50;;;5.70;;
66946;SDS011;53853;51.982;5.928;2024-03-23T01:01:55;12.48;;;6.32;;
66946;SDS011;53853;51.982;5.928;2024-03-23T01:04:23;14.10;;;6.85;;
66946;SDS011;53853;51.982;5.928;2024-03-23T01:06:50;12.07;;;5.78;;
66946;SDS011;53853;51.982;5.928;2024-03-23T01:09:17;12.20;;;5.93;;
66946;SDS011;53853;51.982;5.928;2024-03-23T01:11:47;12.35;;;6.72;;
66946;SDS011;53853;51.982;5.928;2024-03-23T01:14:14;16.17;;;8.07;;
66946;SDS011;53853;51.982;5.928;2024-03-23T01:16:41;14.32;;;6.40;;
66946;SDS011;53853;51.982;5.928;2024-03-23T01:19:09;19.95;;;7.10;;
66946;SDS011;53853;51.982;5.928;2024-03-23T01:21:36;13.90;;;6.47;;
66946;SDS011;53853;51.982;5.928;2024-03-23T01:24:03;15.43;;;7.18;;
66946;SDS011;53853;51.982;5.928;2024-03-23T01:26:31;13.23;;;7.07;;
66946;SDS011;53853;51.982;5.928;2024-03-23T01:29:00;13.95;;;6.88;;
66946;SDS011;53853;51.982;5.928;2024-03-23T01:31:28;15.25;;;7.85;;
66946;SDS011;53853;51.982;5.928;2024-03-23T01:33:55;13.48;;;7.30;;
66946;SDS011;53853;51.982;5.928;2024-03-23T01:36:22;16.55;;;8.02;;
66946;SDS011;53853;51.982;5.928;2024-03-23T01:38:50;12.70;;;7.50;;
66946;SDS011;53853;51.982;5.928;2024-03-23T01:41:17;14.88;;;8.20;;
66946;SDS011;53853;51.982;5.928;2024-03-23T01:43:45;14.18;;;7.05;;
66946;SDS011;53853;51.982;5.928;2024-03-23T01:46:14;15.73;;;7.32;;
66946;SDS011;53853;51.982;5.928;2024-03-23T01:48:42;14.35;;;6.60;;
66946;SDS011;53853;51.982;5.928;2024-03-23T01:51:09;15.93;;;8.20;;
66946;SDS011;53853;51.982;5.928;2024-03-23T01:53:37;13.55;;;8.18;;
66946;SDS011;53853;51.982;5.928;2024-03-23T01:56:04;16.98;;;8.35;;
66946;SDS011;53853;51.982;5.928;2024-03-23T01:58:32;14.63;;;8.43;;
66946;SDS011;53853;51.982;5.928;2024-03-23T02:00:59;12.30;;;6.93;;
66946;SDS011;53853;51.982;5.928;2024-03-23T02:03:29;15.82;;;8.68;;
66946;SDS011;53853;51.982;5.928;2024-03-23T02:05:56;13.93;;;8.00;;
66946;SDS011;53853;51.982;5.928;2024-03-23T02:08:24;14.07;;;7.75;;
66946;SDS011;53853;51.982;5.928;2024-03-23T02:10:51;10.18;;;6.00;;
66946;SDS011;53853;51.982;5.928;2024-03-23T02:13:18;19.83;;;9.75;;
66946;SDS011;53853;51.982;5.928;2024-03-23T02:15:46;20.27;;;9.95;;
66946;SDS011;53853;51.982;5.928;2024-03-23T02:18:13;17.38;;;9.93;;
66946;SDS011;53853;51.982;5.928;2024-03-23T02:20:43;14.13;;;8.45;;
66946;SDS011;53853;51.982;5.928;2024-03-23T02:23:15;20.45;;;8.88;;
66946;SDS011;53853;51.982;5.928;2024-03-23T02:25:43;15.57;;;7.88;;
66946;SDS011;53853;51.982;5.928;2024-03-23T02:28:11;11.60;;;7.60;;
66946;SDS011;53853;51.982;5.928;2024-03-23T02:30:38;23.08;;;9.10;;
66946;SDS011;53853;51.982;5.928;2024-03-23T02:33:05;15.40;;;8.55;;
66946;SDS011;53853;51.982;5.928;2024-03-23T02:35:32;18.90;;;8.80;;
66946;SDS011;53853;51.982;5.928;2024-03-23T02:37:59;14.07;;;7.78;;
66946;SDS011;53853;51.982;5.928;2024-03-23T02:40:29;19.17;;;10.38;;
66946;SDS011;53853;51.982;5.928;2024-03-23T02:42:56;20.40;;;9.32;;
66946;SDS011;53853;51.982;5.928;2024-03-23T02:45:24;16.33;;;9.18;;
66946;SDS011;53853;51.982;5.928;2024-03-23T02:47:51;20.48;;;10.95;;
66946;SDS011;53853;51.982;5.928;2024-03-23T02:50:18;14.82;;;9.55;;
66946;SDS011;53853;51.982;5.928;2024-03-23T02:52:45;15.85;;;9.57;;
66946;SDS011;53853;51.982;5.928;2024-03-23T02:55:13;14.30;;;8.68;;
66946;SDS011;53853;51.982;5.928;2024-03-23T02:57:43;16.02;;;8.52;;
66946;SDS011;53853;51.982;5.928;2024-03-23T03:00:10;19.55;;;9.77;;
66946;SDS011;53853;51.982;5.928;2024-03-23T03:02:38;15.75;;;9.45;;
66946;SDS011;53853;51.982;5.928;2024-03-23T03:05:06;15.38;;;9.35;;
66946;SDS011;53853;51.982;5.928;2024-03-23T03:07:34;13.38;;;8.52;;
66946;SDS011;53853;51.982;5.928;2024-03-23T03:10:01;18.05;;;10.52;;
66946;SDS011;53853;51.982;5.928;2024-03-23T03:12:28;21.08;;;11.43;;
66946;SDS011;53853;51.982;5.928;2024-03-23T03:14:58;16.50;;;10.05;;
66946;SDS011;53853;51.982;5.928;2024-03-23T03:17:25;14.30;;;10.40;;
66946;SDS011;53853;51.982;5.928;2024-03-23T03:19:52;17.13;;;8.82;;
66946;SDS011;53853;51.982;5.928;2024-03-23T03:22:20;24.85;;;11.75;;
66946;SDS011;53853;51.982;5.928;2024-03-23T03:24:47;22.63;;;13.05;;
66946;SDS011;53853;51.982;5.928;2024-03-23T03:27:14;16.92;;;10.30;;
66946;SDS011;53853;51.982;5.928;2024-03-23T03:29:41;18.15;;;10.68;;
66946;SDS011;53853;51.982;5.928;2024-03-23T03:32:11;18.38;;;10.65;;
66946;SDS011;53853;51.982;5.928;2024-03-23T03:34:38;16.27;;;10.10;;
66946;SDS011;53853;51.982;5.928;2024-03-23T03:37:05;20.52;;;9.32;;
66946;SDS011;53853;51.982;5.928;2024-03-23T03:39:32;24.00;;;13.02;;
66946;SDS011;53853;51.982;5.928;2024-03-23T03:41:59;18.98;;;10.52;;
66946;SDS011;53853;51.982;5.928;2024-03-23T03:44:27;18.02;;;10.23;;
66946;SDS011;53853;51.982;5.928;2024-03-23T03:46:55;16.63;;;10.30;;
66946;SDS011;53853;51.982;5.928;2024-03-23T03:49:24;24.10;;;13.05;;
66946;SDS011;53853;51.982;5.928;2024-03-23T03:51:52;19.27;;;10.52;;
66946;SDS011;53853;51.982;5.928;2024-03-23T03:54:19;19.52;;;12.23;;
66946;SDS011;53853;51.982;5.928;2024-03-23T03:56:46;19.50;;;11.13;;
66946;SDS011;53853;51.982;5.928;2024-03-23T03:59:13;17.98;;;9.30;;
66946;SDS011;53853;51.982;5.928;2024-03-23T04:01:41;17.95;;;9.73;;
66946;SDS011;53853;51.982;5.928;2024-03-23T04:04:08;19.88;;;11.02;;
66946;SDS011;53853;51.982;5.928;2024-03-23T04:06:38;21.48;;;12.00;;
66946;SDS011;53853;51.982;5.928;2024-03-23T04:09:05;15.38;;;9.77;;
66946;SDS011;53853;51.982;5.928;2024-03-23T04:11:32;12.43;;;8.35;;
66946;SDS011;53853;51.982;5.928;2024-03-23T04:13:59;15.80;;;8.48;;
66946;SDS011;53853;51.982;5.928;2024-03-23T04:16:27;11.82;;;8.27;;
66946;SDS011;53853;51.982;5.928;2024-03-23T04:18:54;12.73;;;9.30;;
66946;SDS011;53853;51.982;5.928;2024-03-23T04:21:21;16.13;;;9.65;;
66946;SDS011;53853;51.982;5.928;2024-03-23T04:23:51;14.25;;;10.15;;
66946;SDS011;53853;51.982;5.928;2024-03-23T04:26:18;15.90;;;8.82;;
66946;SDS011;53853;51.982;5.928;2024-03-23T04:28:46;14.50;;;8.65;;
66946;SDS011;53853;51.982;5.928;2024-03-23T04:31:13;15.48;;;8.63;;
66946;SDS011;53853;51.982;5.928;2024-03-23T04:33:40;19.40;;;9.88;;
66946;SDS011;53853;51.982;5.928;2024-03-23T04:36:08;11.18;;;7.57;;
66946;SDS011;53853;51.982;5.928;2024-03-23T04:38:35;11.68;;;7.68;;
66946;SDS011;53853;51.982;5.928;2024-03-23T04:41:05;12.25;;;7.68;;
66946;SDS011;53853;51.982;5.928;2024-03-23T04:43:32;16.20;;;8.10;;
66946;SDS011;53853;51.982;5.928;2024-03-23T04:46:00;13.73;;;9.02;;
66946;SDS011;53853;51.982;5.928;2024-03-23T04:48:27;13.35;;;8.10;;
66946;SDS011;53853;51.982;5.928;2024-03-23T04:50:54;15.38;;;8.70;;
66946;SDS011;53853;51.982;5.928;2024-03-23T04:53:22;18.02;;;8.30;;
66946;SDS011;53853;51.982;5.928;2024-03-23T04:55:54;19.40;;;9.05;;
66946;SDS011;53853;51.982;5.928;2024-03-23T04:58:25;22.80;;;10.32;;
66946;SDS011;53853;51.982;5.928;2024-03-23T05:00:55;17.80;;;8.32;;
66946;SDS011;53853;51.982;5.928;2024-03-23T05:03:23;15.85;;;8.35;;
66946;SDS011;53853;51.982;5.928;2024-03-23T05:05:50;13.07;;;6.85;;
66946;SDS011;53853;51.982;5.928;2024-03-23T05:08:17;12.23;;;6.60;;
66946;SDS011;53853;51.982;5.928;2024-03-23T05:10:45;16.52;;;7.85;;
66946;SDS011;53853;51.982;5.928;2024-03-23T05:13:12;24.38;;;8.93;;
66946;SDS011;53853;51.982;5.928;2024-03-23T05:15:42;17.38;;;6.70;;
66946;SDS011;53853;51.982;5.928;2024-03-23T05:18:09;10.82;;;6.40;;
66946;SDS011;53853;51.982;5.928;2024-03-23T05:20:36;17.30;;;6.88;;
66946;SDS011;53853;51.982;5.928;2024-03-23T05:23:03;20.58;;;8.25;;
66946;SDS011;53853;51.982;5.928;2024-03-23T05:25:30;12.85;;;5.40;;
66946;SDS011;53853;51.982;5.928;2024-03-23T05:27:58;13.75;;;5.85;;
66946;SDS011;53853;51.982;5.928;2024-03-23T05:30:25;17.08;;;6.53;;
66946;SDS011;53853;51.982;5.928;2024-03-23T05:32:55;15.90;;;7.55;;
66946;SDS011;53853;51.982;5.928;2024-03-23T05:35:22;18.17;;;6.45;;
66946;SDS011;53853;51.982;5.928;2024-03-23T05:37:49;8.50;;;4.43;;
66946;SDS011;53853;51.982;5.928;2024-03-23T05:40:16;9.20;;;4.78;;
66946;SDS011;53853;51.982;5.928;2024-03-23T05:42:44;14.68;;;5.15;;
66946;SDS011;53853;51.982;5.928;2024-03-23T05:45:11;13.52;;;5.43;;
66946;SDS011;53853;51.982;5.928;2024-03-23T05:47:38;11.07;;;5.60;;
66946;SDS011;53853;51.982;5.928;2024-03-23T05:50:08;23.98;;;6.82;;
66946;SDS011;53853;51.982;5.928;2024-03-23T05:52:35;10.80;;;5.63;;
66946;SDS011;53853;51.982;5.928;2024-03-23T05:55:03;14.55;;;4.95;;
66946;SDS011;53853;51.982;5.928;2024-03-23T05:57:30;12.88;;;4.47;;
66946;SDS011;53853;51.982;5.928;2024-03-23T05:59:58;16.75;;;5.07;;
66946;SDS011;53853;51.982;5.928;2024-03-23T06:02:25;11.18;;;4.82;;
66946;SDS011;53853;51.982;5.928;2024-03-23T06:04:52;13.52;;;4.68;;
66946;SDS011;53853;51.982;5.928;2024-03-23T06:07:22;12.85;;;4.70;;
66946;SDS011;53853;51.982;5.928;2024-03-23T06:09:49;9.15;;;4.40;;
66946;SDS011;53853;51.982;5.928;2024-03-23T06:12:16;10.80;;;4.45;;
66946;SDS011;53853;51.982;5.928;2024-03-23T06:14:43;10.07;;;4.72;;
66946;SDS011;53853;51.982;5.928;2024-03-23T06:17:11;6.40;;;3.92;;
66946;SDS011;53853;51.982;5.928;2024-03-23T06:19:38;8.70;;;4.15;;
66946;SDS011;53853;51.982;5.928;2024-03-23T06:22:05;15.30;;;5.63;;
66946;SDS011;53853;51.982;5.928;2024-03-23T06:24:35;8.55;;;4.00;;
66946;SDS011;53853;51.982;5.928;2024-03-23T06:27:02;8.40;;;4.45;;
66946;SDS011;53853;51.982;5.928;2024-03-23T06:29:30;14.18;;;4.75;;
66946;SDS011;53853;51.982;5.928;2024-03-23T06:31:57;12.93;;;5.35;;
66946;SDS011;53853;51.982;5.928;2024-03-23T06:34:24;16.13;;;5.85;;
66946;SDS011;53853;51.982;5.928;2024-03-23T06:36:51;12.40;;;4.55;;
66946;SDS011;53853;51.982;5.928;2024-03-23T06:39:19;15.00;;;5.15;;
66946;SDS011;53853;51.982;5.928;2024-03-23T06:41:53;12.95;;;4.65;;
66946;SDS011;53853;51.982;5.928;2024-03-23T06:44:21;12.35;;;5.43;;
66946;SDS011;53853;51.982;5.928;2024-03-23T06:46:48;13.30;;;4.00;;
66946;SDS011;53853;51.982;5.928;2024-03-23T06:49:15;14.13;;;4.75;;
66946;SDS011;53853;51.982;5.928;2024-03-23T06:51:42;10.02;;;3.95;;
66946;SDS011;53853;51.982;5.928;2024-03-23T06:54:10;13.48;;;4.18;;
66946;SDS011;53853;51.982;5.928;2024-03-23T06:56:38;12.10;;;4.20;;
66946;SDS011;53853;51.982;5.928;2024-03-23T06:59:07;15.55;;;4.57;;
66946;SDS011;53853;51.982;5.928;2024-03-23T07:01:35;13.18;;;4.00;;
66946;SDS011;53853;51.982;5.928;2024-03-23T07:04:02;13.07;;;3.88;;
66946;SDS011;53853;51.982;5.928;2024-03-23T07:06:29;11.98;;;4.15;;
66946;SDS011;53853;51.982;5.928;2024-03-23T07:08:57;13.05;;;3.67;;
66946;SDS011;53853;51.982;5.928;2024-03-23T07:11:24;8.90;;;4.32;;
66946;SDS011;53853;51.982;5.928;2024-03-23T07:13:52;8.52;;;2.70;;
66946;SDS011;53853;51.982;5.928;2024-03-23T07:16:23;7.70;;;2.90;;
66946;SDS011;53853;51.982;5.928;2024-03-23T07:18:50;10.05;;;3.60;;
66946;SDS011;53853;51.982;5.928;2024-03-23T07:21:17;9.85;;;3.92;;
66946;SDS011;53853;51.982;5.928;2024-03-23T07:23:44;7.35;;;3.38;;
66946;SDS011;53853;51.982;5.928;2024-03-23T07:26:12;9.73;;;3.25;;
66946;SDS011;53853;51.982;5.928;2024-03-23T07:28:39;13.43;;;4.05;;
66946;SDS011;53853;51.982;5.928;2024-03-23T07:31:08;12.85;;;4.50;;
66946;SDS011;53853;51.982;5.928;2024-03-23T07:33:41;14.10;;;4.70;;
66946;SDS011;53853;51.982;5.928;2024-03-23T07:36:09;15.13;;;5.20;;
66946;SDS011;53853;51.982;5.928;2024-03-23T07:38:36;13.95;;;5.13;;
66946;SDS011;53853;51.982;5.928;2024-03-23T07:41:06;12.50;;;3.88;;
66946;SDS011;53853;51.982;5.928;2024-03-23T07:43:34;12.07;;;4.22;;
66946;SDS011;53853;51.982;5.928;2024-03-23T07:46:02;15.60;;;4.72;;
66946;SDS011;53853;51.982;5.928;2024-03-23T07:48:29;11.75;;;4.05;;
66946;SDS011;53853;51.982;5.928;2024-03-23T07:51:01;11.80;;;4.72;;
66946;SDS011;53853;51.982;5.928;2024-03-23T07:53:30;15.80;;;4.40;;
66946;SDS011;53853;51.982;5.928;2024-03-23T07:55:58;15.48;;;4.50;;
66946;SDS011;53853;51.982;5.928;2024-03-23T07:58:26;13.13;;;4.10;;
66946;SDS011;53853;51.982;5.928;2024-03-23T08:00:54;11.07;;;2.72;;
66946;SDS011;53853;51.982;5.928;2024-03-23T08:03:22;14.23;;;4.53;;
66946;SDS011;53853;51.982;5.928;2024-03-23T08:05:49;11.55;;;4.38;;
66946;SDS011;53853;51.982;5.928;2024-03-23T08:08:19;14.98;;;4.82;;
66946;SDS011;53853;51.982;5.928;2024-03-23T08:10:47;12.68;;;4.60;;
66946;SDS011;53853;51.982;5.928;2024-03-23T08:13:15;14.48;;;4.75;;
66946;SDS011;53853;51.982;5.928;2024-03-23T08:15:42;16.70;;;5.20;;
66946;SDS011;53853;51.982;5.928;2024-03-23T08:18:10;13.23;;;4.22;;
66946;SDS011;53853;51.982;5.928;2024-03-23T08:20:37;12.73;;;4.45;;
66946;SDS011;53853;51.982;5.928;2024-03-23T08:23:05;11.10;;;3.03;;
66946;SDS011;53853;51.982;5.928;2024-03-23T08:25:36;15.32;;;4.18;;
66946;SDS011;53853;51.982;5.928;2024-03-23T08:28:03;11.68;;;4.78;;
66946;SDS011;53853;51.982;5.928;2024-03-23T08:30:31;16.33;;;4.03;;
66946;SDS011;53853;51.982;5.928;2024-03-23T08:33:00;12.55;;;4.03;;
66946;SDS011;53853;51.982;5.928;2024-03-23T08:35:28;11.48;;;4.57;;
66946;SDS011;53853;51.982;5.928;2024-03-23T08:37:55;13.73;;;4.43;;
66946;SDS011;53853;51.982;5.928;2024-03-23T08:40:22;11.23;;;4.28;;
66946;SDS011;53853;51.982;5.928;2024-03-23T08:42:52;10.65;;;4.65;;
66946;SDS011;53853;51.982;5.928;2024-03-23T08:45:19;13.48;;;3.50;;
66946;SDS011;53853;51.982;5.928;2024-03-23T08:47:46;10.73;;;3.53;;
66946;SDS011;53853;51.982;5.928;2024-03-23T08:50:13;12.00;;;4.05;;
66946;SDS011;53853;51.982;5.928;2024-03-23T08:52:41;11.50;;;3.25;;
66946;SDS011;53853;51.982;5.928;2024-03-23T08:55:08;9.98;;;3.35;;
66946;SDS011;53853;51.982;5.928;2024-03-23T08:57:35;6.68;;;2.60;;
66946;SDS011;53853;51.982;5.928;2024-03-23T09:00:06;10.23;;;3.03;;
66946;SDS011;53853;51.982;5.928;2024-03-23T09:02:33;12.57;;;3.63;;
66946;SDS011;53853;51.982;5.928;2024-03-23T09:05:00;11.30;;;3.40;;
66946;SDS011;53853;51.982;5.928;2024-03-23T09:07:28;6.45;;;2.00;;
66946;SDS011;53853;51.982;5.928;2024-03-23T09:09:55;5.57;;;2.15;;
66946;SDS011;53853;51.982;5.928;2024-03-23T09:12:22;9.93;;;3.20;;
66946;SDS011;53853;51.982;5.928;2024-03-23T09:14:50;7.07;;;2.67;;
66946;SDS011;53853;51.982;5.928;2024-03-23T09:17:20;5.70;;;2.20;;
66946;SDS011;53853;51.982;5.928;2024-03-23T09:19:47;8.95;;;3.58;;
66946;SDS011;53853;51.982;5.928;2024-03-23T09:22:14;11.23;;;3.22;;
66946;SDS011;53853;51.982;5.928;2024-03-23T09:24:42;9.35;;;2.95;;
66946;SDS011;53853;51.982;5.928;2024-03-23T09:27:09;11.95;;;3.63;;
66946;SDS011;53853;51.982;5.928;2024-03-23T09:29:36;13.98;;;3.15;;
66946;SDS011;53853;51.982;5.928;2024-03-23T09:32:03;8.10;;;3.05;;
66946;SDS011;53853;51.982;5.928;2024-03-23T09:34:34;9.55;;;3.05;;
66946;SDS011;53853;51.982;5.928;2024-03-23T09:37:01;10.75;;;3.33;;
66946;SDS011;53853;51.982;5.928;2024-03-23T09:39:28;11.25;;;3.08;;
66946;SDS011;53853;51.982;5.928;2024-03-23T09:41:56;8.95;;;2.83;;
66946;SDS011;53853;51.982;5.928;2024-03-23T09:44:24;8.70;;;2.70;;
66946;SDS011;53853;51.982;5.928;2024-03-23T09:46:52;9.77;;;2.70;;
66946;SDS011;53853;51.982;5.928;2024-03-23T09:49:19;12.73;;;3.30;;
66946;SDS011;53853;51.982;5.928;2024-03-23T09:51:49;10.27;;;2.92;;
66946;SDS011;53853;51.982;5.928;2024-03-23T09:54:16;8.52;;;2.60;;
66946;SDS011;53853;51.982;5.928;2024-03-23T09:56:43;8.40;;;2.40;;
66946;SDS011;53853;51.982;5.928;2024-03-23T09:59:10;12.20;;;4.00;;
66946;SDS011;53853;51.982;5.928;2024-03-23T10:01:37;6.15;;;2.40;;
66946;SDS011;53853;51.982;5.928;2024-03-23T10:04:08;9.02;;;2.92;;
66946;SDS011;53853;51.982;5.928;2024-03-23T10:06:35;11.30;;;3.10;;
66946;SDS011;53853;51.982;5.928;2024-03-23T10:09:05;7.75;;;3.00;;
66946;SDS011;53853;51.982;5.928;2024-03-23T10:11:44;13.43;;;3.88;;
66946;SDS011;53853;51.982;5.928;2024-03-23T10:14:11;10.85;;;3.55;;
66946;SDS011;53853;51.982;5.928;2024-03-23T10:16:54;14.98;;;3.67;;
66946;SDS011;53853;51.982;5.928;2024-03-23T10:19:37;6.50;;;3.00;;
66946;SDS011;53853;51.982;5.928;2024-03-23T10:22:04;10.07;;;3.42;;
66946;SDS011;53853;51.982;5.928;2024-03-23T10:24:35;8.43;;;2.97;;
66946;SDS011;53853;51.982;5.928;2024-03-23T10:27:02;9.27;;;2.88;;
66946;SDS011;53853;51.982;5.928;2024-03-23T10:29:29;8.45;;;2.47;;
66946;SDS011;53853;51.982;5.928;2024-03-23T10:34:45;7.90;;;2.70;;
66946;SDS011;53853;51.982;5.928;2024-03-23T10:37:12;7.82;;;2.67;;
66946;SDS011;53853;51.982;5.928;2024-03-23T10:39:42;7.22;;;2.58;;
66946;SDS011;53853;51.982;5.928;2024-03-23T10:42:09;6.13;;;2.30;;
66946;SDS011;53853;51.982;5.928;2024-03-23T10:44:37;8.75;;;2.53;;
66946;SDS011;53853;51.982;5.928;2024-03-23T10:47:05;8.80;;;2.78;;
66946;SDS011;53853;51.982;5.928;2024-03-23T10:49:32;9.80;;;3.45;;
66946;SDS011;53853;51.982;5.928;2024-03-23T10:52:01;7.38;;;2.25;;
66946;SDS011;53853;51.982;5.928;2024-03-23T10:54:30;7.88;;;2.85;;
66946;SDS011;53853;51.982;5.928;2024-03-23T10:57:01;10.20;;;2.63;;
66946;SDS011;53853;51.982;5.928;2024-03-23T10:59:32;10.00;;;3.08;;
66946;SDS011;53853;51.982;5.928;2024-03-23T11:02:02;8.07;;;2.75;;
66946;SDS011;53853;51.982;5.928;2024-03-23T11:04:30;10.30;;;2.72;;
66946;SDS011;53853;51.982;5.928;2024-03-23T11:06:59;6.95;;;3.00;;
66946;SDS011;53853;51.982;5.928;2024-03-23T11:09:39;10.60;;;2.78;;
66946;SDS011;53853;51.982;5.928;2024-03-23T11:14:59;8.68;;;3.15;;
66946;SDS011;53853;51.982;5.928;2024-03-23T11:17:29;8.05;;;2.70;;
66946;SDS011;53853;51.982;5.928;2024-03-23T11:19:57;10.15;;;3.08;;
66946;SDS011;53853;51.982;5.928;2024-03-23T11:25:12;9.90;;;2.60;;
66946;SDS011;53853;51.982;5.928;2024-03-23T11:30:13;9.73;;;2.83;;
66946;SDS011;53853;51.982;5.928;2024-03-23T11:32:42;9.25;;;2.72;;
66946;SDS011;53853;51.982;5.928;2024-03-23T11:35:10;10.05;;;2.65;;
66946;SDS011;53853;51.982;5.928;2024-03-23T11:38:00;7.40;;;3.10;;
66946;SDS011;53853;51.982;5.928;2024-03-23T11:40:32;7.80;;;2.72;;
66946;SDS011;53853;51.982;5.928;2024-03-23T11:43:02;8.32;;;2.97;;
66946;SDS011;53853;51.982;5.928;2024-03-23T11:45:33;9.68;;;3.05;;
66946;SDS011;53853;51.982;5.928;2024-03-23T11:48:03;7.18;;;2.67;;
66946;SDS011;53853;51.982;5.928;2024-03-23T11:50:31;6.78;;;2.08;;
66946;SDS011;53853;51.982;5.928;2024-03-23T11:55:45;5.90;;;2.20;;
66946;SDS011;53853;51.982;5.928;2024-03-23T11:58:16;9.88;;;2.85;;
66946;SDS011;53853;51.982;5.928;2024-03-23T12:00:49;5.28;;;2.50;;
66946;SDS011;53853;51.982;5.928;2024-03-23T12:03:17;10.40;;;2.92;;
66946;SDS011;53853;51.982;5.928;2024-03-23T12:05:47;8.23;;;2.70;;
66946;SDS011;53853;51.982;5.928;2024-03-23T12:08:19;6.82;;;2.58;;
66946;SDS011;53853;51.982;5.928;2024-03-23T12:10:48;10.05;;;2.78;;
66946;SDS011;53853;51.982;5.928;2024-03-23T12:13:20;8.70;;;3.00;;
66946;SDS011;53853;51.982;5.928;2024-03-23T12:15:49;7.75;;;2.67;;
66946;SDS011;53853;51.982;5.928;2024-03-23T12:18:17;5.53;;;2.38;;
66946;SDS011;53853;51.982;5.928;2024-03-23T12:20:49;7.07;;;2.83;;
66946;SDS011;53853;51.982;5.928;2024-03-23T12:23:17;5.80;;;2.00;;
66946;SDS011;53853;51.982;5.928;2024-03-23T12:25:44;7.93;;;1.92;;
66946;SDS011;53853;51.982;5.928;2024-03-23T12:28:14;8.30;;;2.35;;
66946;SDS011;53853;51.982;5.928;2024-03-23T12:30:44;6.72;;;2.42;;
66946;SDS011;53853;51.982;5.928;2024-03-23T12:33:11;4.90;;;2.05;;
66946;SDS011;53853;51.982;5.928;2024-03-23T12:35:38;10.30;;;2.28;;
66946;SDS011;53853;51.982;5.928;2024-03-23T12:38:06;7.72;;;2.70;;
66946;SDS011;53853;51.982;5.928;2024-03-23T12:40:33;8.48;;;2.58;;
66946;SDS011;53853;51.982;5.928;2024-03-23T12:43:00;8.13;;;2.42;;
66946;SDS011;53853;51.982;5.928;2024-03-23T12:45:27;8.45;;;2.53;;
66946;SDS011;53853;51.982;5.928;2024-03-23T12:47:57;10.32;;;2.85;;
66946;SDS011;53853;51.982;5.928;2024-03-23T12:50:24;7.15;;;2.95;;
66946;SDS011;53853;51.982;5.928;2024-03-23T12:52:51;9.20;;;2.63;;
66946;SDS011;53853;51.982;5.928;2024-03-23T12:55:19;10.02;;;2.83;;
66946;SDS011;53853;51.982;5.928;2024-03-23T12:57:46;7.57;;;2.83;;
66946;SDS011;53853;51.982;5.928;2024-03-23T13:00:13;10.05;;;2.33;;
66946;SDS011;53853;51.982;5.928;2024-03-23T13:02:41;9.88;;;2.85;;
66946;SDS011;53853;51.982;5.928;2024-03-23T13:05:11;6.28;;;2.67;;
66946;SDS011;53853;51.982;5.928;2024-03-23T13:07:38;6.97;;;2.72;;
66946;SDS011;53853;51.982;5.928;2024-03-23T13:10:06;9.38;;;3.15;;
66946;SDS011;53853;51.982;5.928;2024-03-23T13:12:34;8.90;;;3.00;;
66946;SDS011;53853;51.982;5.928;2024-03-23T13:15:01;7.72;;;2.55;;
66946;SDS011;53853;51.982;5.928;2024-03-23T13:17:29;9.02;;;2.40;;
66946;SDS011;53853;51.982;5.928;2024-03-23T13:19:56;5.45;;;2.22;;
66946;SDS011;53853;51.982;5.928;2024-03-23T13:22:26;6.10;;;2.60;;
66946;SDS011;53853;51.982;5.928;2024-03-23T13:24:53;6.05;;;2.28;;
66946;SDS011;53853;51.982;5.928;2024-03-23T13:27:21;8.00;;;2.65;;
66946;SDS011;53853;51.982;5.928;2024-03-23T13:29:48;7.85;;;2.58;;
66946;SDS011;53853;51.982;5.928;2024-03-23T13:32:15;10.90;;;3.30;;
66946;SDS011;53853;51.982;5.928;2024-03-23T13:34:42;7.88;;;2.40;;
66946;SDS011;53853;51.982;5.928;2024-03-23T13:37:09;11.38;;;3.33;;
66946;SDS011;53853;51.982;5.928;2024-03-23T13:39:39;8.43;;;2.85;;
66946;SDS011;53853;51.982;5.928;2024-03-23T13:42:07;8.40;;;2.33;;
66946;SDS011;53853;51.982;5.928;2024-03-23T13:44:34;13.85;;;3.15;;
66946;SDS011;53853;51.982;5.928;2024-03-23T13:47:02;14.93;;;2.80;;
66946;SDS011;53853;51.982;5.928;2024-03-23T13:49:30;8.77;;;2.72;;
66946;SDS011;53853;51.982;5.928;2024-03-23T13:51:58;9.35;;;2.28;;
66946;SDS011;53853;51.982;5.928;2024-03-23T13:54:25;8.13;;;2.45;;
66946;SDS011;53853;51.982;5.928;2024-03-23T13:56:56;7.80;;;2.40;;
66946;SDS011;53853;51.982;5.928;2024-03-23T13:59:23;7.43;;;2.85;;
66946;SDS011;53853;51.982;5.928;2024-03-23T14:01:50;6.35;;;2.53;;
66946;SDS011;53853;51.982;5.928;2024-03-23T14:04:17;9.20;;;2.38;;
66946;SDS011;53853;51.982;5.928;2024-03-23T14:06:45;7.78;;;2.70;;
66946;SDS011;53853;51.982;5.928;2024-03-23T14:09:12;10.25;;;3.13;;
66946;SDS011;53853;51.982;5.928;2024-03-23T14:11:40;9.18;;;2.28;;
66946;SDS011;53853;51.982;5.928;2024-03-23T14:14:10;11.90;;;2.90;;
66946;SDS011;53853;51.982;5.928;2024-03-23T14:16:37;7.18;;;2.55;;
66946;SDS011;53853;51.982;5.928;2024-03-23T14:19:04;7.07;;;2.28;;
66946;SDS011;53853;51.982;5.928;2024-03-23T14:21:31;6.05;;;1.85;;
66946;SDS011;53853;51.982;5.928;2024-03-23T14:23:58;6.47;;;2.42;;
66946;SDS011;53853;51.982;5.928;2024-03-23T14:26:26;7.68;;;2.35;;
66946;SDS011;53853;51.982;5.928;2024-03-23T14:28:53;5.07;;;1.98;;
66946;SDS011;53853;51.982;5.928;2024-03-23T14:31:23;4.80;;;2.15;;
66946;SDS011;53853;51.982;5.928;2024-03-23T14:33:50;5.88;;;2.50;;
66946;SDS011;53853;51.982;5.928;2024-03-23T14:36:17;9.02;;;2.40;;
66946;SDS011;53853;51.982;5.928;2024-03-23T14:38:46;6.22;;;2.03;;
66946;SDS011;53853;51.982;5.928;2024-03-23T14:41:14;4.90;;;1.85;;
66946;SDS011;53853;51.982;5.928;2024-03-23T14:43:41;5.82;;;2.05;;
66946;SDS011;53853;51.982;5.928;2024-03-23T14:46:09;5.72;;;2.28;;
66946;SDS011;53853;51.982;5.928;2024-03-23T14:48:40;5.43;;;1.70;;
66946;SDS011;53853;51.982;5.928;2024-03-23T14:51:08;7.88;;;2.25;;
66946;SDS011;53853;51.982;5.928;2024-03-23T14:53:37;5.63;;;2.03;;
66946;SDS011;53853;51.982;5.928;2024-03-23T14:56:05;5.22;;;1.60;;
66946;SDS011;53853;51.982;5.928;2024-03-23T14:58:33;7.85;;;2.35;;
66946;SDS011;53853;51.982;5.928;2024-03-23T15:01:00;7.95;;;2.75;;
66946;SDS011;53853;51.982;5.928;2024-03-23T15:03:28;9.40;;;2.58;;
66946;SDS011;53853;51.982;5.928;2024-03-23T15:05:58;8.45;;;2.63;;
66946;SDS011;53853;51.982;5.928;2024-03-23T15:08:25;8.63;;;2.53;;
66946;SDS011;53853;51.982;5.928;2024-03-23T15:10:53;10.45;;;2.83;;
66946;SDS011;53853;51.982;5.928;2024-03-23T15:13:21;7.60;;;2.17;;
66946;SDS011;53853;51.982;5.928;2024-03-23T15:15:48;7.22;;;2.55;;
66946;SDS011;53853;51.982;5.928;2024-03-23T15:18:15;16.13;;;3.17;;
66946;SDS011;53853;51.982;5.928;2024-03-23T15:20:51;6.25;;;2.25;;
66946;SDS011;53853;51.982;5.928;2024-03-23T15:23:21;6.95;;;2.50;;
66946;SDS011;53853;51.982;5.928;2024-03-23T15:25:53;6.07;;;2.08;;
66946;SDS011;53853;51.982;5.928;2024-03-23T15:28:21;8.00;;;2.00;;
66946;SDS011;53853;51.982;5.928;2024-03-23T15:30:48;7.80;;;2.63;;
66946;SDS011;53853;51.982;5.928;2024-03-23T15:33:16;9.85;;;2.60;;
66946;SDS011;53853;51.982;5.928;2024-03-23T15:35:43;7.95;;;2.03;;
66946;SDS011;53853;51.982;5.928;2024-03-23T15:38:10;6.70;;;2.33;;
66946;SDS011;53853;51.982;5.928;2024-03-23T15:40:40;8.07;;;3.00;;
66946;SDS011;53853;51.982;5.928;2024-03-23T15:43:07;11.43;;;4.03;;
66946;SDS011;53853;51.982;5.928;2024-03-23T15:45:34;7.00;;;2.30;;
66946;SDS011;53853;51.982;5.928;2024-03-23T15:48:01;6.65;;;2.03;;
66946;SDS011;53853;51.982;5.928;2024-03-23T15:50:29;12.57;;;2.88;;